sensor_id;sensor_type;location;lat;lon;timestamp;P1;durP1;ratioP1;P2;durP2;ratioP2
21569;SDS011;57598;50.888;4.746;2023-02-10T01:37:45;32.90;;;31.00;;
21569;SDS011;57598;50.888;4.746;2023-02-10T01:40:13;32.13;;;30.23;;
21569;SDS011;57598;50.888;4.746;2023-02-10T01:42:41;33.38;;;31.40;;
21569;SDS011;57598;50.888;4.746;2023-02-10T01:45:13;35.58;;;33.28;;
21569;SDS011;57598;50.888;4.746;2023-02-10T01:47:40;34.53;;;32.50;;
21569;SDS011;57598;50.888;4.746;2023-02-10T01:50:08;37.67;;;35.05;;
21569;SDS011;57598;50.888;4.746;2023-02-10T01:52:35;35.60;;;33.50;;
21569;SDS011;57598;50.888;4.746;2023-02-10T01:55:05;38.30;;;35.83;;
21569;SDS011;57598;50.888;4.746;2023-02-10T01:57:33;38.97;;;36.08;;
21569;SDS011;57598;50.888;4.746;2023-02-10T02:00:03;37.25;;;35.05;;
21569;SDS011;57598;50.888;4.746;2023-02-10T02:02:31;36.90;;;34.60;;
21569;SDS011;57598;50.888;4.746;2023-02-10T02:05:01;36.78;;;34.58;;
21569;SDS011;57598;50.888;4.746;2023-02-10T02:07:29;37.13;;;34.92;;
21569;SDS011;57598;50.888;4.746;2023-02-10T02:09:57;38.05;;;35.78;;
21569;SDS011;57598;50.888;4.746;2023-02-10T02:12:30;38.25;;;35.95;;
21569;SDS011;57598;50.888;4.746;2023-02-10T02:15:03;44.38;;;41.72;;
21569;SDS011;57598;50.888;4.746;2023-02-10T02:17:36;39.40;;;37.03;;
21569;SDS011;57598;50.888;4.746;2023-02-10T02:20:10;39.95;;;37.55;;
21569;SDS011;57598;50.888;4.746;2023-02-10T02:31:15;41.08;;;38.58;;
21569;SDS011;57598;50.888;4.746;2023-02-10T02:33:47;40.90;;;38.40;;
21569;SDS011;57598;50.888;4.746;2023-02-10T02:36:17;41.92;;;39.33;;
21569;SDS011;57598;50.888;4.746;2023-02-10T02:38:45;43.60;;;41.00;;
21569;SDS011;57598;50.888;4.746;2023-02-10T02:41:21;41.35;;;38.85;;
21569;SDS011;57598;50.888;4.746;2023-02-10T02:43:49;41.65;;;39.15;;
21569;SDS011;57598;50.888;4.746;2023-02-10T02:46:19;46.92;;;43.92;;
21569;SDS011;57598;50.888;4.746;2023-02-10T02:48:54;43.78;;;41.17;;
21569;SDS011;57598;50.888;4.746;2023-02-10T02:51:27;52.22;;;44.55;;
21569;SDS011;57598;50.888;4.746;2023-02-10T02:53:59;48.33;;;45.25;;
21569;SDS011;57598;50.888;4.746;2023-02-10T02:56:30;51.45;;;48.22;;
21569;SDS011;57598;50.888;4.746;2023-02-10T03:01:28;53.72;;;50.33;;
21569;SDS011;57598;50.888;4.746;2023-02-10T03:03:58;57.13;;;53.42;;
21569;SDS011;57598;50.888;4.746;2023-02-10T03:06:26;60.78;;;56.70;;
21569;SDS011;57598;50.888;4.746;2023-02-10T03:08:54;60.85;;;56.70;;
21569;SDS011;57598;50.888;4.746;2023-02-10T03:11:22;59.60;;;55.47;;
21569;SDS011;57598;50.888;4.746;2023-02-10T03:13:49;64.95;;;60.55;;
21569;SDS011;57598;50.888;4.746;2023-02-10T03:16:17;60.95;;;56.75;;
21569;SDS011;57598;50.888;4.746;2023-02-10T03:18:44;70.75;;;65.05;;
21569;SDS011;57598;50.888;4.746;2023-02-10T03:21:13;65.55;;;60.75;;
21569;SDS011;57598;50.888;4.746;2023-02-10T03:23:40;65.55;;;60.72;;
21569;SDS011;57598;50.888;4.746;2023-02-10T03:26:08;69.38;;;63.67;;
21569;SDS011;57598;50.888;4.746;2023-02-10T03:28:35;67.47;;;62.58;;
21569;SDS011;57598;50.888;4.746;2023-02-10T03:31:03;63.85;;;59.20;;
21569;SDS011;57598;50.888;4.746;2023-02-10T03:33:31;63.22;;;58.58;;
21569;SDS011;57598;50.888;4.746;2023-02-10T03:35:58;61.15;;;56.65;;
21569;SDS011;57598;50.888;4.746;2023-02-10T03:38:27;63.50;;;58.90;;
21569;SDS011;57598;50.888;4.746;2023-02-10T03:40:55;62.63;;;58.13;;
21569;SDS011;57598;50.888;4.746;2023-02-10T03:43:23;64.35;;;59.85;;
21569;SDS011;57598;50.888;4.746;2023-02-10T03:45:50;62.35;;;57.95;;
21569;SDS011;57598;50.888;4.746;2023-02-10T03:48:18;61.50;;;57.13;;
21569;SDS011;57598;50.888;4.746;2023-02-10T03:50:47;60.22;;;56.03;;
21569;SDS011;57598;50.888;4.746;2023-02-10T03:53:14;60.45;;;56.25;;
21569;SDS011;57598;50.888;4.746;2023-02-10T03:55:43;64.47;;;59.97;;
21569;SDS011;57598;50.888;4.746;2023-02-10T03:58:11;61.38;;;57.17;;
21569;SDS011;57598;50.888;4.746;2023-02-10T04:00:38;59.33;;;55.22;;
21569;SDS011;57598;50.888;4.746;2023-02-10T04:03:06;62.13;;;57.83;;
21569;SDS011;57598;50.888;4.746;2023-02-10T04:05:33;64.90;;;60.50;;
21569;SDS011;57598;50.888;4.746;2023-02-10T04:08:00;60.00;;;55.95;;
21569;SDS011;57598;50.888;4.746;2023-02-10T04:10:28;59.00;;;55.00;;
21569;SDS011;57598;50.888;4.746;2023-02-10T04:12:57;60.35;;;56.25;;
21569;SDS011;57598;50.888;4.746;2023-02-10T04:15:24;60.63;;;56.53;;
21569;SDS011;57598;50.888;4.746;2023-02-10T04:17:52;59.28;;;55.28;;
21569;SDS011;57598;50.888;4.746;2023-02-10T04:20:21;59.42;;;55.35;;
21569;SDS011;57598;50.888;4.746;2023-02-10T04:22:49;59.38;;;55.28;;
21569;SDS011;57598;50.888;4.746;2023-02-10T04:25:16;63.00;;;58.30;;
21569;SDS011;57598;50.888;4.746;2023-02-10T04:27:44;60.05;;;55.85;;
21569;SDS011;57598;50.888;4.746;2023-02-10T04:30:13;60.53;;;56.33;;
21569;SDS011;57598;50.888;4.746;2023-02-10T04:32:40;57.85;;;53.85;;
21569;SDS011;57598;50.888;4.746;2023-02-10T04:35:08;58.38;;;54.35;;
21569;SDS011;57598;50.888;4.746;2023-02-10T04:37:35;58.15;;;54.13;;
21569;SDS011;57598;50.888;4.746;2023-02-10T04:40:03;64.35;;;59.45;;
21569;SDS011;57598;50.888;4.746;2023-02-10T04:42:30;59.55;;;55.40;;
21569;SDS011;57598;50.888;4.746;2023-02-10T04:44:58;60.17;;;55.97;;
21569;SDS011;57598;50.888;4.746;2023-02-10T04:47:27;61.35;;;56.95;;
21569;SDS011;57598;50.888;4.746;2023-02-10T04:49:55;67.28;;;61.95;;
21569;SDS011;57598;50.888;4.746;2023-02-10T04:52:22;58.55;;;54.45;;
21569;SDS011;57598;50.888;4.746;2023-02-10T04:54:50;67.05;;;62.45;;
21569;SDS011;57598;50.888;4.746;2023-02-10T04:57:17;64.78;;;59.88;;
21569;SDS011;57598;50.888;4.746;2023-02-10T04:59:44;63.40;;;58.88;;
21569;SDS011;57598;50.888;4.746;2023-02-10T05:02:12;62.22;;;57.63;;
21569;SDS011;57598;50.888;4.746;2023-02-10T05:04:41;63.35;;;58.85;;
21569;SDS011;57598;50.888;4.746;2023-02-10T05:07:08;65.60;;;60.80;;
21569;SDS011;57598;50.888;4.746;2023-02-10T05:09:36;62.22;;;57.70;;
21569;SDS011;57598;50.888;4.746;2023-02-10T05:12:03;70.70;;;65.43;;
21569;SDS011;57598;50.888;4.746;2023-02-10T05:14:31;66.50;;;61.25;;
21569;SDS011;57598;50.888;4.746;2023-02-10T05:16:58;68.45;;;62.97;;
21569;SDS011;57598;50.888;4.746;2023-02-10T05:19:26;71.32;;;65.93;;
21569;SDS011;57598;50.888;4.746;2023-02-10T05:21:55;65.78;;;60.97;;
21569;SDS011;57598;50.888;4.746;2023-02-10T05:24:22;69.43;;;63.90;;
21569;SDS011;57598;50.888;4.746;2023-02-10T05:26:50;67.82;;;62.53;;
21569;SDS011;57598;50.888;4.746;2023-02-10T05:29:17;68.72;;;63.33;;
21569;SDS011;57598;50.888;4.746;2023-02-10T05:31:44;71.93;;;65.32;;
21569;SDS011;57598;50.888;4.746;2023-02-10T05:34:12;70.20;;;64.13;;
21569;SDS011;57598;50.888;4.746;2023-02-10T05:36:39;67.22;;;61.33;;
21569;SDS011;57598;50.888;4.746;2023-02-10T05:39:10;89.32;;;67.25;;
21569;SDS011;57598;50.888;4.746;2023-02-10T05:41:50;76.47;;;69.13;;
21569;SDS011;57598;50.888;4.746;2023-02-10T05:44:17;68.90;;;62.90;;
21569;SDS011;57598;50.888;4.746;2023-02-10T05:46:45;68.53;;;62.53;;
21569;SDS011;57598;50.888;4.746;2023-02-10T05:49:13;72.93;;;66.82;;
21569;SDS011;57598;50.888;4.746;2023-02-10T05:51:40;67.25;;;61.35;;
21569;SDS011;57598;50.888;4.746;2023-02-10T05:54:07;70.13;;;63.83;;
21569;SDS011;57598;50.888;4.746;2023-02-10T05:56:37;68.07;;;61.78;;
21569;SDS011;57598;50.888;4.746;2023-02-10T05:59:04;74.93;;;66.97;;
21569;SDS011;57598;50.888;4.746;2023-02-10T06:01:32;71.88;;;65.78;;
21569;SDS011;57598;50.888;4.746;2023-02-10T06:04:00;68.65;;;62.75;;
21569;SDS011;57598;50.888;4.746;2023-02-10T06:06:27;76.10;;;69.80;;
21569;SDS011;57598;50.888;4.746;2023-02-10T06:08:54;73.53;;;66.32;;
21569;SDS011;57598;50.888;4.746;2023-02-10T06:11:22;70.20;;;64.07;;
21569;SDS011;57598;50.888;4.746;2023-02-10T06:13:51;75.00;;;68.55;;
21569;SDS011;57598;50.888;4.746;2023-02-10T06:16:18;78.95;;;71.38;;
21569;SDS011;57598;50.888;4.746;2023-02-10T06:18:51;69.85;;;63.70;;
21569;SDS011;57598;50.888;4.746;2023-02-10T06:21:19;75.47;;;67.85;;
21569;SDS011;57598;50.888;4.746;2023-02-10T06:23:47;72.13;;;65.43;;
21569;SDS011;57598;50.888;4.746;2023-02-10T06:26:15;70.82;;;64.43;;
21569;SDS011;57598;50.888;4.746;2023-02-10T06:28:42;72.00;;;64.57;;
21569;SDS011;57598;50.888;4.746;2023-02-10T06:31:12;81.40;;;73.90;;
21569;SDS011;57598;50.888;4.746;2023-02-10T06:33:41;69.35;;;63.20;;
21569;SDS011;57598;50.888;4.746;2023-02-10T06:36:09;65.88;;;59.97;;
21569;SDS011;57598;50.888;4.746;2023-02-10T06:38:39;73.40;;;65.90;;
21569;SDS011;57598;50.888;4.746;2023-02-10T06:41:06;76.55;;;69.78;;
21569;SDS011;57598;50.888;4.746;2023-02-10T06:43:34;69.15;;;62.95;;
21569;SDS011;57598;50.888;4.746;2023-02-10T06:46:01;75.43;;;67.60;;
21569;SDS011;57598;50.888;4.746;2023-02-10T06:48:31;74.43;;;66.95;;
21569;SDS011;57598;50.888;4.746;2023-02-10T06:50:58;79.53;;;72.38;;
21569;SDS011;57598;50.888;4.746;2023-02-10T06:53:25;74.28;;;67.07;;
21569;SDS011;57598;50.888;4.746;2023-02-10T06:55:55;69.57;;;62.90;;
21569;SDS011;57598;50.888;4.746;2023-02-10T06:58:22;76.38;;;69.78;;
21569;SDS011;57598;50.888;4.746;2023-02-10T07:00:50;66.97;;;60.78;;
21569;SDS011;57598;50.888;4.746;2023-02-10T07:03:18;73.75;;;67.47;;
21569;SDS011;57598;50.888;4.746;2023-02-10T07:05:47;71.70;;;64.80;;
21569;SDS011;57598;50.888;4.746;2023-02-10T07:08:14;67.70;;;61.47;;
21569;SDS011;57598;50.888;4.746;2023-02-10T07:10:42;69.03;;;62.65;;
21569;SDS011;57598;50.888;4.746;2023-02-10T07:13:09;76.05;;;69.45;;
21569;SDS011;57598;50.888;4.746;2023-02-10T07:15:37;65.60;;;59.80;;
21569;SDS011;57598;50.888;4.746;2023-02-10T07:18:04;70.68;;;64.40;;
21569;SDS011;57598;50.888;4.746;2023-02-10T07:20:32;68.47;;;62.75;;
21569;SDS011;57598;50.888;4.746;2023-02-10T07:23:01;70.00;;;64.05;;
21569;SDS011;57598;50.888;4.746;2023-02-10T07:25:28;72.70;;;66.25;;
21569;SDS011;57598;50.888;4.746;2023-02-10T07:27:55;65.38;;;59.67;;
21569;SDS011;57598;50.888;4.746;2023-02-10T07:30:23;70.57;;;64.68;;
21569;SDS011;57598;50.888;4.746;2023-02-10T07:32:50;71.22;;;64.80;;
21569;SDS011;57598;50.888;4.746;2023-02-10T07:35:18;72.25;;;65.97;;
21569;SDS011;57598;50.888;4.746;2023-02-10T07:37:45;65.55;;;60.15;;
21569;SDS011;57598;50.888;4.746;2023-02-10T07:40:14;68.13;;;62.13;;
21569;SDS011;57598;50.888;4.746;2023-02-10T07:42:41;70.03;;;63.67;;
21569;SDS011;57598;50.888;4.746;2023-02-10T07:45:09;62.05;;;56.65;;
21569;SDS011;57598;50.888;4.746;2023-02-10T07:47:36;63.22;;;57.92;;
21569;SDS011;57598;50.888;4.746;2023-02-10T07:50:04;66.18;;;60.58;;
21569;SDS011;57598;50.888;4.746;2023-02-10T07:52:31;63.33;;;58.13;;
21569;SDS011;57598;50.888;4.746;2023-02-10T07:54:59;66.80;;;61.05;;
21569;SDS011;57598;50.888;4.746;2023-02-10T07:57:29;62.03;;;57.13;;
21569;SDS011;57598;50.888;4.746;2023-02-10T07:59:56;62.00;;;56.70;;
21569;SDS011;57598;50.888;4.746;2023-02-10T08:02:24;63.53;;;58.60;;
21569;SDS011;57598;50.888;4.746;2023-02-10T08:04:51;59.70;;;55.10;;
21569;SDS011;57598;50.888;4.746;2023-02-10T08:07:20;66.63;;;60.97;;
21569;SDS011;57598;50.888;4.746;2023-02-10T08:09:48;57.85;;;53.38;;
21569;SDS011;57598;50.888;4.746;2023-02-10T08:12:16;58.95;;;54.65;;
21569;SDS011;57598;50.888;4.746;2023-02-10T08:14:45;59.97;;;55.72;;
21569;SDS011;57598;50.888;4.746;2023-02-10T08:17:13;57.90;;;53.80;;
21569;SDS011;57598;50.888;4.746;2023-02-10T08:19:40;59.08;;;54.35;;
21569;SDS011;57598;50.888;4.746;2023-02-10T08:22:08;57.03;;;53.13;;
21569;SDS011;57598;50.888;4.746;2023-02-10T08:24:35;56.13;;;52.42;;
21569;SDS011;57598;50.888;4.746;2023-02-10T08:27:03;58.75;;;54.95;;
21569;SDS011;57598;50.888;4.746;2023-02-10T08:29:31;62.17;;;57.92;;
21569;SDS011;57598;50.888;4.746;2023-02-10T08:32:00;57.10;;;53.60;;
21569;SDS011;57598;50.888;4.746;2023-02-10T08:34:27;56.70;;;53.20;;
21569;SDS011;57598;50.888;4.746;2023-02-10T08:36:55;66.63;;;62.15;;
21569;SDS011;57598;50.888;4.746;2023-02-10T08:39:26;60.70;;;57.05;;
21569;SDS011;57598;50.888;4.746;2023-02-10T08:41:55;60.90;;;57.10;;
21569;SDS011;57598;50.888;4.746;2023-02-10T08:44:23;62.45;;;58.38;;
21569;SDS011;57598;50.888;4.746;2023-02-10T08:46:50;60.15;;;56.33;;
21569;SDS011;57598;50.888;4.746;2023-02-10T08:49:19;69.53;;;65.10;;
21569;SDS011;57598;50.888;4.746;2023-02-10T08:51:49;62.17;;;57.47;;
21569;SDS011;57598;50.888;4.746;2023-02-10T08:54:16;55.47;;;51.63;;
21569;SDS011;57598;50.888;4.746;2023-02-10T08:56:44;52.95;;;49.33;;
21569;SDS011;57598;50.888;4.746;2023-02-10T08:59:11;47.25;;;44.08;;
21569;SDS011;57598;50.888;4.746;2023-02-10T09:01:38;47.35;;;42.10;;
21569;SDS011;57598;50.888;4.746;2023-02-10T09:04:06;40.55;;;37.88;;
21569;SDS011;57598;50.888;4.746;2023-02-10T09:06:35;40.65;;;36.75;;
21569;SDS011;57598;50.888;4.746;2023-02-10T09:09:04;46.63;;;42.33;;
21569;SDS011;57598;50.888;4.746;2023-02-10T09:11:31;39.13;;;35.92;;
21569;SDS011;57598;50.888;4.746;2023-02-10T09:13:58;29.10;;;27.30;;
21569;SDS011;57598;50.888;4.746;2023-02-10T09:16:26;40.72;;;36.58;;
21569;SDS011;57598;50.888;4.746;2023-02-10T09:18:53;30.42;;;28.33;;
21569;SDS011;57598;50.888;4.746;2023-02-10T09:21:20;32.30;;;30.13;;
21569;SDS011;57598;50.888;4.746;2023-02-10T09:23:50;32.53;;;30.35;;
21569;SDS011;57598;50.888;4.746;2023-02-10T09:26:18;29.33;;;27.02;;
21569;SDS011;57598;50.888;4.746;2023-02-10T09:28:45;40.10;;;36.22;;
21569;SDS011;57598;50.888;4.746;2023-02-10T09:31:13;29.48;;;26.80;;
21569;SDS011;57598;50.888;4.746;2023-02-10T09:33:41;30.30;;;28.15;;
21569;SDS011;57598;50.888;4.746;2023-02-10T09:36:09;30.50;;;28.40;;
21569;SDS011;57598;50.888;4.746;2023-02-10T09:38:38;29.65;;;27.30;;
21569;SDS011;57598;50.888;4.746;2023-02-10T09:41:09;27.50;;;24.90;;
21569;SDS011;57598;50.888;4.746;2023-02-10T09:43:47;25.08;;;23.25;;
21569;SDS011;57598;50.888;4.746;2023-02-10T09:46:21;27.58;;;25.55;;
21569;SDS011;57598;50.888;4.746;2023-02-10T09:48:58;29.50;;;27.25;;
21569;SDS011;57598;50.888;4.746;2023-02-10T09:51:31;27.65;;;25.67;;
21569;SDS011;57598;50.888;4.746;2023-02-10T09:54:00;31.60;;;28.98;;
21569;SDS011;57598;50.888;4.746;2023-02-10T09:56:29;27.80;;;25.52;;
21569;SDS011;57598;50.888;4.746;2023-02-10T09:58:56;30.25;;;28.25;;
21569;SDS011;57598;50.888;4.746;2023-02-10T10:01:24;27.80;;;25.25;;
21569;SDS011;57598;50.888;4.746;2023-02-10T10:03:53;30.13;;;28.05;;
21569;SDS011;57598;50.888;4.746;2023-02-10T10:06:22;33.30;;;31.25;;
21569;SDS011;57598;50.888;4.746;2023-02-10T10:08:53;32.22;;;30.23;;
21569;SDS011;57598;50.888;4.746;2023-02-10T10:11:25;29.95;;;28.15;;
21569;SDS011;57598;50.888;4.746;2023-02-10T10:13:55;34.40;;;31.88;;
21569;SDS011;57598;50.888;4.746;2023-02-10T10:16:33;37.67;;;33.97;;
21569;SDS011;57598;50.888;4.746;2023-02-10T10:19:06;31.35;;;29.52;;
21569;SDS011;57598;50.888;4.746;2023-02-10T10:21:41;40.60;;;37.13;;
21569;SDS011;57598;50.888;4.746;2023-02-10T10:24:14;36.58;;;33.22;;
21569;SDS011;57598;50.888;4.746;2023-02-10T10:26:49;36.85;;;33.67;;
21569;SDS011;57598;50.888;4.746;2023-02-10T10:29:23;41.45;;;37.33;;
21569;SDS011;57598;50.888;4.746;2023-02-10T10:31:56;34.03;;;31.33;;
21569;SDS011;57598;50.888;4.746;2023-02-10T10:34:25;29.30;;;27.23;;
21569;SDS011;57598;50.888;4.746;2023-02-10T10:36:55;36.33;;;32.92;;
21569;SDS011;57598;50.888;4.746;2023-02-10T10:39:26;32.35;;;29.80;;
21569;SDS011;57598;50.888;4.746;2023-02-10T10:41:56;28.42;;;26.75;;
21569;SDS011;57598;50.888;4.746;2023-02-10T10:44:25;29.08;;;27.20;;
21569;SDS011;57598;50.888;4.746;2023-02-10T10:46:55;33.35;;;30.38;;
21569;SDS011;57598;50.888;4.746;2023-02-10T10:49:26;28.83;;;27.08;;
21569;SDS011;57598;50.888;4.746;2023-02-10T10:51:53;29.45;;;27.20;;
21569;SDS011;57598;50.888;4.746;2023-02-10T10:54:21;32.90;;;30.13;;
21569;SDS011;57598;50.888;4.746;2023-02-10T10:56:49;35.80;;;33.10;;
21569;SDS011;57598;50.888;4.746;2023-02-10T10:59:18;46.33;;;34.38;;
21569;SDS011;57598;50.888;4.746;2023-02-10T11:01:48;36.33;;;33.15;;
21569;SDS011;57598;50.888;4.746;2023-02-10T11:04:18;32.30;;;30.33;;
21569;SDS011;57598;50.888;4.746;2023-02-10T11:06:46;29.02;;;27.10;;
21569;SDS011;57598;50.888;4.746;2023-02-10T11:09:20;29.10;;;26.90;;
21569;SDS011;57598;50.888;4.746;2023-02-10T11:11:48;26.70;;;24.73;;
21569;SDS011;57598;50.888;4.746;2023-02-10T11:14:16;37.97;;;32.95;;
21569;SDS011;57598;50.888;4.746;2023-02-10T11:16:45;24.58;;;23.17;;
21569;SDS011;57598;50.888;4.746;2023-02-10T11:19:18;24.83;;;23.13;;
21569;SDS011;57598;50.888;4.746;2023-02-10T11:21:46;23.42;;;21.92;;
21569;SDS011;57598;50.888;4.746;2023-02-10T11:24:15;37.40;;;27.33;;
21569;SDS011;57598;50.888;4.746;2023-02-10T11:26:52;30.52;;;27.77;;
21569;SDS011;57598;50.888;4.746;2023-02-10T11:29:19;21.88;;;20.17;;
21569;SDS011;57598;50.888;4.746;2023-02-10T11:31:47;30.05;;;27.13;;
21569;SDS011;57598;50.888;4.746;2023-02-10T11:34:19;27.88;;;25.35;;
21569;SDS011;57598;50.888;4.746;2023-02-10T11:36:47;28.30;;;25.53;;
21569;SDS011;57598;50.888;4.746;2023-02-10T11:39:18;27.50;;;24.63;;
21569;SDS011;57598;50.888;4.746;2023-02-10T11:41:46;24.75;;;23.02;;
21569;SDS011;57598;50.888;4.746;2023-02-10T11:44:21;27.65;;;25.73;;
21569;SDS011;57598;50.888;4.746;2023-02-10T11:46:53;29.77;;;27.08;;
21569;SDS011;57598;50.888;4.746;2023-02-10T11:49:22;34.47;;;27.17;;
21569;SDS011;57598;50.888;4.746;2023-02-10T11:51:53;30.95;;;28.08;;
21569;SDS011;57598;50.888;4.746;2023-02-10T11:54:21;37.22;;;32.95;;
21569;SDS011;57598;50.888;4.746;2023-02-10T11:56:50;29.63;;;26.88;;
21569;SDS011;57598;50.888;4.746;2023-02-10T11:59:38;46.70;;;32.72;;
21569;SDS011;57598;50.888;4.746;2023-02-10T12:02:12;32.05;;;29.35;;
21569;SDS011;57598;50.888;4.746;2023-02-10T12:04:55;35.67;;;29.58;;
21569;SDS011;57598;50.888;4.746;2023-02-10T12:07:33;34.30;;;31.23;;
21569;SDS011;57598;50.888;4.746;2023-02-10T12:10:08;27.33;;;25.08;;
21569;SDS011;57598;50.888;4.746;2023-02-10T12:12:38;25.90;;;23.48;;
21569;SDS011;57598;50.888;4.746;2023-02-10T12:15:08;27.17;;;24.92;;
21569;SDS011;57598;50.888;4.746;2023-02-10T12:17:42;29.52;;;26.88;;
21569;SDS011;57598;50.888;4.746;2023-02-10T12:20:24;27.38;;;25.23;;
21569;SDS011;57598;50.888;4.746;2023-02-10T12:23:07;26.25;;;24.33;;
21569;SDS011;57598;50.888;4.746;2023-02-10T12:25:39;31.35;;;28.27;;
21569;SDS011;57598;50.888;4.746;2023-02-10T12:28:10;30.33;;;27.63;;
21569;SDS011;57598;50.888;4.746;2023-02-10T12:30:41;28.17;;;25.88;;
21569;SDS011;57598;50.888;4.746;2023-02-10T12:33:30;25.58;;;23.35;;
21569;SDS011;57598;50.888;4.746;2023-02-10T12:36:02;26.60;;;24.55;;
21569;SDS011;57598;50.888;4.746;2023-02-10T12:38:40;31.55;;;28.30;;
21569;SDS011;57598;50.888;4.746;2023-02-10T12:41:14;28.45;;;25.92;;
21569;SDS011;57598;50.888;4.746;2023-02-10T12:43:54;32.67;;;29.50;;
21569;SDS011;57598;50.888;4.746;2023-02-10T12:46:25;31.80;;;27.48;;
21569;SDS011;57598;50.888;4.746;2023-02-10T12:51:43;26.40;;;24.45;;
21569;SDS011;57598;50.888;4.746;2023-02-10T12:54:13;29.92;;;26.70;;
21569;SDS011;57598;50.888;4.746;2023-02-10T12:56:43;26.67;;;24.73;;
21569;SDS011;57598;50.888;4.746;2023-02-10T12:59:13;39.63;;;29.55;;
21569;SDS011;57598;50.888;4.746;2023-02-10T13:01:42;26.52;;;24.23;;
21569;SDS011;57598;50.888;4.746;2023-02-10T13:04:13;31.08;;;28.35;;
21569;SDS011;57598;50.888;4.746;2023-02-10T13:06:44;28.52;;;25.88;;
21569;SDS011;57598;50.888;4.746;2023-02-10T13:09:15;28.00;;;25.35;;
21569;SDS011;57598;50.888;4.746;2023-02-10T13:11:45;23.35;;;21.55;;
21569;SDS011;57598;50.888;4.746;2023-02-10T13:14:16;26.33;;;24.10;;
21569;SDS011;57598;50.888;4.746;2023-02-10T13:16:51;23.17;;;21.35;;
21569;SDS011;57598;50.888;4.746;2023-02-10T13:19:22;34.05;;;28.55;;
21569;SDS011;57598;50.888;4.746;2023-02-10T13:21:54;31.27;;;27.90;;
21569;SDS011;57598;50.888;4.746;2023-02-10T13:24:24;25.42;;;23.60;;
21569;SDS011;57598;50.888;4.746;2023-02-10T13:26:55;30.08;;;27.05;;
21569;SDS011;57598;50.888;4.746;2023-02-10T13:29:26;41.63;;;31.77;;
21569;SDS011;57598;50.888;4.746;2023-02-10T13:31:58;41.47;;;34.10;;
21569;SDS011;57598;50.888;4.746;2023-02-10T13:34:27;35.72;;;32.13;;
21569;SDS011;57598;50.888;4.746;2023-02-10T13:36:58;30.75;;;27.45;;
21569;SDS011;57598;50.888;4.746;2023-02-10T13:39:26;34.28;;;30.85;;
21569;SDS011;57598;50.888;4.746;2023-02-10T13:42:03;27.60;;;25.13;;
21569;SDS011;57598;50.888;4.746;2023-02-10T13:44:33;31.33;;;28.65;;
21569;SDS011;57598;50.888;4.746;2023-02-10T13:47:13;34.95;;;31.70;;
21569;SDS011;57598;50.888;4.746;2023-02-10T13:49:48;30.65;;;27.55;;
21569;SDS011;57598;50.888;4.746;2023-02-10T13:52:18;32.55;;;29.50;;
21569;SDS011;57598;50.888;4.746;2023-02-10T13:54:52;29.77;;;27.13;;
21569;SDS011;57598;50.888;4.746;2023-02-10T13:57:23;31.60;;;29.17;;
21569;SDS011;57598;50.888;4.746;2023-02-10T13:59:51;34.22;;;30.58;;
21569;SDS011;57598;50.888;4.746;2023-02-10T14:02:19;30.67;;;27.73;;
21569;SDS011;57598;50.888;4.746;2023-02-10T14:04:48;30.83;;;28.00;;
21569;SDS011;57598;50.888;4.746;2023-02-10T14:07:30;38.97;;;35.10;;
21569;SDS011;57598;50.888;4.746;2023-02-10T14:12:53;37.80;;;33.83;;
21569;SDS011;57598;50.888;4.746;2023-02-10T14:15:24;33.13;;;30.40;;
21569;SDS011;57598;50.888;4.746;2023-02-10T14:17:53;35.33;;;31.83;;
21569;SDS011;57598;50.888;4.746;2023-02-10T14:20:25;24.92;;;22.80;;
21569;SDS011;57598;50.888;4.746;2023-02-10T14:23:00;34.22;;;31.08;;
21569;SDS011;57598;50.888;4.746;2023-02-10T14:25:29;38.08;;;30.65;;
21569;SDS011;57598;50.888;4.746;2023-02-10T14:28:00;25.85;;;24.00;;
21569;SDS011;57598;50.888;4.746;2023-02-10T14:30:32;32.40;;;29.65;;
21569;SDS011;57598;50.888;4.746;2023-02-10T14:33:01;43.15;;;39.10;;
21569;SDS011;57598;50.888;4.746;2023-02-10T14:35:28;30.50;;;27.50;;
21569;SDS011;57598;50.888;4.746;2023-02-10T14:38:01;47.78;;;39.75;;
21569;SDS011;57598;50.888;4.746;2023-02-10T14:40:29;39.70;;;35.85;;
21569;SDS011;57598;50.888;4.746;2023-02-10T14:42:57;35.00;;;31.67;;
21569;SDS011;57598;50.888;4.746;2023-02-10T14:45:27;32.30;;;28.65;;
21569;SDS011;57598;50.888;4.746;2023-02-10T14:47:55;36.30;;;32.88;;
21569;SDS011;57598;50.888;4.746;2023-02-10T14:50:24;31.65;;;29.35;;
21569;SDS011;57598;50.888;4.746;2023-02-10T14:52:52;37.97;;;33.92;;
21569;SDS011;57598;50.888;4.746;2023-02-10T14:55:24;42.28;;;38.30;;
21569;SDS011;57598;50.888;4.746;2023-02-10T14:57:52;39.67;;;33.28;;
21569;SDS011;57598;50.888;4.746;2023-02-10T15:00:22;37.15;;;34.08;;
21569;SDS011;57598;50.888;4.746;2023-02-10T15:02:53;36.58;;;33.28;;
21569;SDS011;57598;50.888;4.746;2023-02-10T15:07:50;27.98;;;26.02;;
21569;SDS011;57598;50.888;4.746;2023-02-10T15:10:24;31.00;;;27.90;;
21569;SDS011;57598;50.888;4.746;2023-02-10T15:12:54;30.98;;;28.67;;
21569;SDS011;57598;50.888;4.746;2023-02-10T15:15:24;26.58;;;23.88;;
21569;SDS011;57598;50.888;4.746;2023-02-10T15:17:54;28.27;;;25.90;;
21569;SDS011;57598;50.888;4.746;2023-02-10T15:20:22;29.27;;;26.88;;
21569;SDS011;57598;50.888;4.746;2023-02-10T15:23:02;31.92;;;29.38;;
21569;SDS011;57598;50.888;4.746;2023-02-10T15:25:31;24.70;;;23.30;;
21569;SDS011;57598;50.888;4.746;2023-02-10T15:28:16;37.33;;;33.88;;
21569;SDS011;57598;50.888;4.746;2023-02-10T15:30:45;40.30;;;36.72;;
21569;SDS011;57598;50.888;4.746;2023-02-10T15:33:17;29.33;;;27.05;;
21569;SDS011;57598;50.888;4.746;2023-02-10T15:35:50;27.65;;;26.05;;
21569;SDS011;57598;50.888;4.746;2023-02-10T15:38:17;30.70;;;28.63;;
21569;SDS011;57598;50.888;4.746;2023-02-10T15:40:50;29.90;;;28.02;;
21569;SDS011;57598;50.888;4.746;2023-02-10T15:43:23;27.05;;;25.55;;
21569;SDS011;57598;50.888;4.746;2023-02-10T15:45:50;28.83;;;26.83;;
21569;SDS011;57598;50.888;4.746;2023-02-10T15:48:18;33.45;;;31.23;;
21569;SDS011;57598;50.888;4.746;2023-02-10T15:50:46;32.50;;;29.88;;
21569;SDS011;57598;50.888;4.746;2023-02-10T15:53:16;29.23;;;27.52;;
21569;SDS011;57598;50.888;4.746;2023-02-10T15:55:46;40.00;;;36.20;;
21569;SDS011;57598;50.888;4.746;2023-02-10T15:58:14;36.83;;;33.85;;
21569;SDS011;57598;50.888;4.746;2023-02-10T16:00:43;39.35;;;36.53;;
21569;SDS011;57598;50.888;4.746;2023-02-10T16:03:11;37.13;;;34.63;;
21569;SDS011;57598;50.888;4.746;2023-02-10T16:05:40;40.85;;;38.15;;
21569;SDS011;57598;50.888;4.746;2023-02-10T16:08:09;37.33;;;35.00;;
21569;SDS011;57598;50.888;4.746;2023-02-10T16:10:39;38.10;;;35.78;;
21569;SDS011;57598;50.888;4.746;2023-02-10T16:13:06;38.25;;;35.92;;
21569;SDS011;57598;50.888;4.746;2023-02-10T16:15:33;47.53;;;43.17;;
21569;SDS011;57598;50.888;4.746;2023-02-10T16:18:02;45.63;;;42.58;;
21569;SDS011;57598;50.888;4.746;2023-02-10T16:20:30;48.00;;;43.53;;
21569;SDS011;57598;50.888;4.746;2023-02-10T16:22:58;40.83;;;36.70;;
21569;SDS011;57598;50.888;4.746;2023-02-10T16:25:26;38.90;;;36.65;;
21569;SDS011;57598;50.888;4.746;2023-02-10T16:27:54;44.45;;;40.40;;
21569;SDS011;57598;50.888;4.746;2023-02-10T16:30:22;41.58;;;38.65;;